Seo Young — D7LH — position and weather

sailwx.info

Track history (hours):
 
Tides and Currents Weather Stations Pressure Air Temp Water Temp Dewpoint Dewpoint Depression Visibility Wind Speed Wind Dir Waves Ship Positions

Seo Young

Last reported at 2015-Sep-03 19:18 UTC. Time now 2015-Sep-05 10:16 UTC.
Position N 21°49' E 113°16'.

Length 121 m; draft 8.5 m.

Type: Tanker. MMSI: 440036000.

Date/timePositionNaut miles runAvg speedWind from/ knotsBaromVisibWave heightAir tempDewpointWater temp
2015-Sep-03 19:18N 21°49' E 113°16'0 0.1
2015-Sep-03 18:30N 21°49' E 113°16'0 0.0
2015-Sep-03 17:30N 21°49' E 113°16'0 0.0
2015-Sep-03 16:18N 21°49' E 113°16'0 0.1
2015-Sep-03 15:30N 21°49' E 113°16'1 0.9
2015-Sep-03 14:33N 21°49' E 113°15'10 9.3
2015-Sep-03 13:29N 21°43' E 113°24'5911.2
2015-Sep-03 08:12N 22°07' E 114°22'812.5
2015-Sep-03 07:32N 22°07' E 114°13'1110.8
2015-Sep-03 06:30N 22°16' E 114°06'4 0.3
2015-Sep-02 17:10N 22°20' E 114°05'8 9.9
2015-Sep-02 16:21N 22°13' E 114°10'8 9.9
2015-Sep-02 15:29N 22°08' E 114°17'9 9.1
2015-Sep-02 14:28N 22°01' E 114°24'  
2015-Aug-29 05:28N 01°15' E 104°03'1112.5
2015-Aug-29 04:33N 01°11' E 103°52'13 4.3
2015-Aug-29 01:32N 01°12' E 103°39'2 1.8
2015-Aug-29 00:29N 01°14' E 103°39'0 0.0
2015-Aug-28 22:29N 01°14' E 103°39'0 0.0
2015-Aug-28 21:23N 01°14' E 103°39'0 0.0
2015-Aug-28 20:32N 01°14' E 103°39'0 0.0
2015-Aug-28 16:23N 01°14' E 103°39'0 0.3
2015-Aug-28 15:27N 01°14' E 103°39'5 6.1
2015-Aug-28 14:33N 01°16' E 103°44'2 2.0
2015-Aug-28 13:27N 01°14' E 103°46'0 0.0
2015-Aug-28 12:24N 01°14' E 103°46'0 0.0
2015-Aug-28 11:30N 01°14' E 103°46'0 0.0
2015-Aug-28 10:30N 01°14' E 103°46'0 0.0
2015-Aug-28 09:30N 01°14' E 103°46'0 0.0
2015-Aug-28 08:30N 01°14' E 103°46'0 0.0
2015-Aug-28 07:33N 01°14' E 103°46'0 0.0
2015-Aug-28 06:18N 01°14' E 103°46'0 0.0
2015-Aug-28 05:30N 01°14' E 103°46'0 0.0
2015-Aug-28 04:30N 01°14' E 103°46'0 0.0
2015-Aug-28 03:30N 01°14' E 103°46'0 0.0
2015-Aug-28 02:24N 01°14' E 103°46'0 0.0
2015-Aug-28 01:30N 01°14' E 103°46'0 0.0
2015-Aug-27 23:30N 01°14' E 103°46'0 0.0
2015-Aug-27 22:24N 01°14' E 103°46'0 0.0
2015-Aug-27 21:30N 01°14' E 103°46'0 0.0
2015-Aug-27 20:30N 01°14' E 103°46'0 0.0
2015-Aug-27 19:30N 01°14' E 103°46'0 0.0
2015-Aug-27 18:28N 01°14' E 103°46'3 2.9
2015-Aug-27 17:33N 01°14' E 103°43'6 5.6
2015-Aug-27 16:32N 01°14' E 103°38'0 0.0
2015-Aug-27 13:03N 01°14' E 103°38'2 0.7
2015-Aug-27 09:32N 01°12' E 103°40'7 6.6
2015-Aug-27 08:32N 01°09' E 103°46'1212.7
2015-Aug-27 07:33N 01°14' E 103°57'10 9.7
2015-Aug-27 06:33N 01°17' E 104°06'5 0.3
2015-Aug-26 12:25N 01°16' E 104°11'910.8
2015-Aug-26 11:33N 01°15' E 104°02'1110.5
2015-Aug-26 10:32N 01°11' E 103°52'6 6.4
2015-Aug-26 09:33N 01°14' E 103°46'4 1.3
2015-Aug-26 06:22N 01°17' E 103°44'0 0.0
2015-Aug-26 04:10N 01°17' E 103°44'0 0.0
2015-Aug-26 03:28N 01°17' E 103°44'0 0.0
2015-Aug-26 02:28N 01°17' E 103°44'0 0.0
2015-Aug-26 01:28N 01°17' E 103°44'0 0.0
2015-Aug-26 00:16N 01°17' E 103°44'0 0.0
2015-Aug-25 23:22N 01°17' E 103°44'0 0.0
2015-Aug-25 22:25N 01°17' E 103°44'0 0.0
2015-Aug-25 21:28N 01°17' E 103°44'0 0.0
2015-Aug-25 20:28N 01°17' E 103°44'0 0.0
2015-Aug-25 19:31N 01°17' E 103°44'0 0.0
2015-Aug-25 18:28N 01°17' E 103°44'0 0.0
2015-Aug-25 17:28N 01°17' E 103°44'0 0.0
2015-Aug-25 16:22N 01°17' E 103°44'0 0.0
2015-Aug-25 15:22N 01°17' E 103°44'0 0.0
2015-Aug-25 14:16N 01°17' E 103°44'0 0.0
2015-Aug-25 13:31N 01°17' E 103°44'0 0.0
2015-Aug-25 09:28N 01°17' E 103°44'0 0.1
2015-Aug-25 08:32N 01°17' E 103°44'3 2.9
2015-Aug-25 07:33N 01°15' E 103°45'4 0.7
2015-Aug-25 01:30N 01°13' E 103°41'5 4.8
2015-Aug-25 00:23N 01°18' E 103°44'  
Track history (hours):
 
Tides and Currents Weather Stations Pressure Air Temp Water Temp Dewpoint Dewpoint Depression Visibility Wind Speed Wind Dir Waves Ship Positions

Seo Young

Last reported at 2015-Sep-03 19:18 UTC. Time now 2015-Sep-05 10:16 UTC.
Position N 21°49' E 113°16'.

Length 121 m; draft 8.5 m.

Type: Tanker. MMSI: 440036000.

Date/timePositionNaut miles runAvg speedWind from/ knotsBaromVisibWave heightAir tempDewpointWater temp
2015-Sep-03 19:18N 21°49' E 113°16'0 0.1
2015-Sep-03 18:30N 21°49' E 113°16'0 0.0
2015-Sep-03 17:30N 21°49' E 113°16'0 0.0
2015-Sep-03 16:18N 21°49' E 113°16'0 0.1
2015-Sep-03 15:30N 21°49' E 113°16'1 0.9
2015-Sep-03 14:33N 21°49' E 113°15'10 9.3
2015-Sep-03 13:29N 21°43' E 113°24'5911.2
2015-Sep-03 08:12N 22°07' E 114°22'812.5
2015-Sep-03 07:32N 22°07' E 114°13'1110.8
2015-Sep-03 06:30N 22°16' E 114°06'4 0.3
2015-Sep-02 17:10N 22°20' E 114°05'8 9.9
2015-Sep-02 16:21N 22°13' E 114°10'8 9.9
2015-Sep-02 15:29N 22°08' E 114°17'9 9.1
2015-Sep-02 14:28N 22°01' E 114°24'  
2015-Aug-29 05:28N 01°15' E 104°03'1112.5
2015-Aug-29 04:33N 01°11' E 103°52'13 4.3
2015-Aug-29 01:32N 01°12' E 103°39'2 1.8
2015-Aug-29 00:29N 01°14' E 103°39'0 0.0
2015-Aug-28 22:29N 01°14' E 103°39'0 0.0
2015-Aug-28 21:23N 01°14' E 103°39'0 0.0
2015-Aug-28 20:32N 01°14' E 103°39'0 0.0
2015-Aug-28 16:23N 01°14' E 103°39'0 0.3
2015-Aug-28 15:27N 01°14' E 103°39'5 6.1
2015-Aug-28 14:33N 01°16' E 103°44'2 2.0
2015-Aug-28 13:27N 01°14' E 103°46'0 0.0
2015-Aug-28 12:24N 01°14' E 103°46'0 0.0
2015-Aug-28 11:30N 01°14' E 103°46'0 0.0
2015-Aug-28 10:30N 01°14' E 103°46'0 0.0
2015-Aug-28 09:30N 01°14' E 103°46'0 0.0
2015-Aug-28 08:30N 01°14' E 103°46'0 0.0
2015-Aug-28 07:33N 01°14' E 103°46'0 0.0
2015-Aug-28 06:18N 01°14' E 103°46'0 0.0
2015-Aug-28 05:30N 01°14' E 103°46'0 0.0
2015-Aug-28 04:30N 01°14' E 103°46'0 0.0
2015-Aug-28 03:30N 01°14' E 103°46'0 0.0
2015-Aug-28 02:24N 01°14' E 103°46'0 0.0
2015-Aug-28 01:30N 01°14' E 103°46'0 0.0
2015-Aug-27 23:30N 01°14' E 103°46'0 0.0
2015-Aug-27 22:24N 01°14' E 103°46'0 0.0
2015-Aug-27 21:30N 01°14' E 103°46'0 0.0
2015-Aug-27 20:30N 01°14' E 103°46'0 0.0
2015-Aug-27 19:30N 01°14' E 103°46'0 0.0
2015-Aug-27 18:28N 01°14' E 103°46'3 2.9
2015-Aug-27 17:33N 01°14' E 103°43'6 5.6
2015-Aug-27 16:32N 01°14' E 103°38'0 0.0
2015-Aug-27 13:03N 01°14' E 103°38'2 0.7
2015-Aug-27 09:32N 01°12' E 103°40'7 6.6
2015-Aug-27 08:32N 01°09' E 103°46'1212.7
2015-Aug-27 07:33N 01°14' E 103°57'10 9.7
2015-Aug-27 06:33N 01°17' E 104°06'5 0.3
2015-Aug-26 12:25N 01°16' E 104°11'910.8
2015-Aug-26 11:33N 01°15' E 104°02'1110.5
2015-Aug-26 10:32N 01°11' E 103°52'6 6.4
2015-Aug-26 09:33N 01°14' E 103°46'4 1.3
2015-Aug-26 06:22N 01°17' E 103°44'0 0.0
2015-Aug-26 04:10N 01°17' E 103°44'0 0.0
2015-Aug-26 03:28N 01°17' E 103°44'0 0.0
2015-Aug-26 02:28N 01°17' E 103°44'0 0.0
2015-Aug-26 01:28N 01°17' E 103°44'0 0.0
2015-Aug-26 00:16N 01°17' E 103°44'0 0.0
2015-Aug-25 23:22N 01°17' E 103°44'0 0.0
2015-Aug-25 22:25N 01°17' E 103°44'0 0.0
2015-Aug-25 21:28N 01°17' E 103°44'0 0.0
2015-Aug-25 20:28N 01°17' E 103°44'0 0.0
2015-Aug-25 19:31N 01°17' E 103°44'0 0.0
2015-Aug-25 18:28N 01°17' E 103°44'0 0.0
2015-Aug-25 17:28N 01°17' E 103°44'0 0.0
2015-Aug-25 16:22N 01°17' E 103°44'0 0.0
2015-Aug-25 15:22N 01°17' E 103°44'0 0.0
2015-Aug-25 14:16N 01°17' E 103°44'0 0.0
2015-Aug-25 13:31N 01°17' E 103°44'0 0.0
2015-Aug-25 09:28N 01°17' E 103°44'0 0.1
2015-Aug-25 08:32N 01°17' E 103°44'3 2.9
2015-Aug-25 07:33N 01°15' E 103°45'4 0.7
2015-Aug-25 01:30N 01°13' E 103°41'5 4.8
2015-Aug-25 00:23N 01°18' E 103°44'  

Dump ship's entire track history